Stations météo

réclame
Mon MeteoGroup
Uccle, Belgique (6447): Température de l'air & dewpoint: 12.02.2019 18:00:00 - 18.02.2019 18:00:00 (CET)Uccle, Belgique (6447): Vitesse du vent & gusts: 12.02.2019 18:00:00 - 18.02.2019 18:00:00 (CET)Uccle, Belgique (6447): Direction du vent: 12.02.2019 18:00:00 - 18.02.2019 18:00:00 (CET)Uccle, Belgique (6447): reduced air pressure: 12.02.2019 18:00:00 - 18.02.2019 18:00:00 (CET)Uccle, Belgique (6447): Ensoleillement: 12.02.2019 18:00:00 - 18.02.2019 18:00:00 (CET)Uccle, Belgique (6447): Quantités de précipitations: 12.02.2019 18:00:00 - 18.02.2019 18:00:00 (CET)
Date & Time tt [°C] td [°C] ff [km/h] ff [knt] fx [km/h] fx [knt] dd ppp [hPa] sd [min] rr [mm]
18.02.2019 18:00:00 - - - - - - - - - -
18.02.2019 17:00:00 13,8 2,7 14 8 28 15 SSW 1015,3 60 0,0
18.02.2019 16:00:00 15,3 3,0 9 5 19 11 SSW 1015,2 60 0,0
18.02.2019 15:00:00 14,9 2,9 8 5 18 10 SW 1015,5 60 0,0
18.02.2019 14:00:00 14,6 2,2 8 5 21 12 WSW 1016,1 60 0,0
18.02.2019 13:00:00 14,1 1,9 11 6 19 11 SSW 1016,9 60 0,0
18.02.2019 12:00:00 12,2 1,2 12 6 17 9 SSE 1017,6 60 0,0
18.02.2019 11:00:00 10,8 0,9 10 5 26 14 S 1018,1 60 0,0
18.02.2019 10:00:00 8,8 -0,1 9 5 21 11 SSE 1018,2 60 0,0
18.02.2019 09:00:00 6,3 -0,7 8 5 16 8 SE 1018,5 39 0,0
18.02.2019 08:00:00 5,1 -0,9 9 5 13 7 SSE 1018,7 0 0,0
18.02.2019 07:00:00 5,0 -1,0 7 4 16 8 S 1018,8 0 0,0
18.02.2019 06:00:00 5,5 -1,2 9 5 16 9 S 1018,7 0 0,0
18.02.2019 05:00:00 5,3 -1,3 11 6 14 8 S 1018,7 0 0,0
18.02.2019 04:00:00 6,0 -1,5 7 4 16 9 S 1018,8 0 0,0
18.02.2019 03:00:00 8,3 -0,9 13 7 22 12 S 1019,0 0 0,0
18.02.2019 02:00:00 8,3 -0,3 13 7 18 10 SSE 1019,1 0 0,0
18.02.2019 01:00:00 8,0 -0,3 11 6 20 11 S 1019,1 0 0,0
18.02.2019 00:00:00 8,8 0,6 14 8 21 11 SSE 1019,0 0 0,0
17.02.2019 23:00:00 8,7 0,2 10 6 23 12 S 1019,3 0 0,0
17.02.2019 22:00:00 9,9 0,4 16 9 23 12 S 1019,6 0 0,0
17.02.2019 21:00:00 10,4 0,0 16 8 24 13 S 1019,2 0 0,0
17.02.2019 20:00:00 11,2 -0,3 15 8 24 13 S 1019,2 0 0,0
17.02.2019 19:00:00 11,7 -0,3 14 8 21 12 S 1018,8 0 0,0
17.02.2019 18:00:00 13,6 -0,9 11 6 25 14 S 1018,5 32 0,0
17.02.2019 17:00:00 15,4 -1,9 16 8 31 17 S 1018,0 60 0,0
17.02.2019 16:00:00 16,6 -2,2 17 9 41 22 SSW 1018,3 60 0,0
17.02.2019 15:00:00 16,3 -2,1 21 11 39 21 SSW 1018,5 60 0,0
17.02.2019 14:00:00 16,0 0,6 19 10 31 17 S 1019,0 60 0,0
17.02.2019 13:00:00 15,2 -0,1 16 9 29 15 S 1019,4 60 0,0
17.02.2019 12:00:00 12,9 1,6 18 10 33 18 S 1019,9 60 0,0
17.02.2019 11:00:00 10,6 1,8 15 8 31 17 S 1020,3 60 0,0
17.02.2019 10:00:00 8,7 1,0 21 11 33 18 SSE 1020,7 54 0,0
17.02.2019 09:00:00 7,3 0,7 21 11 29 16 SSE 1020,8 0 0,0
17.02.2019 08:00:00 7,1 -0,2 19 11 28 15 SSE 1021,0 0 0,0
17.02.2019 07:00:00 7,4 -0,3 18 10 25 13 SSE 1021,2 0 0,0
17.02.2019 06:00:00 6,7 0,7 12 7 22 12 SSE 1021,6 0 0,0
17.02.2019 05:00:00 7,1 1,2 15 8 23 13 SSE 1021,9 0 0,0
17.02.2019 04:00:00 6,8 1,5 13 7 24 13 SSE 1022,5 0 0,0
17.02.2019 03:00:00 6,9 1,4 16 8 22 12 SSE 1023,0 0 0,0
17.02.2019 02:00:00 4,5 0,2 8 5 13 7 S 1023,8 0 0,0
17.02.2019 01:00:00 5,4 0,7 11 6 19 10 S 1024,0 0 0,0
17.02.2019 00:00:00 4,8 -0,2 8 4 15 8 SSE 1024,3 0 0,0
16.02.2019 23:00:00 6,2 0,4 10 5 17 9 SSE 1024,5 0 0,0
16.02.2019 22:00:00 7,3 2,3 13 7 17 9 S 1024,6 0 0,0
16.02.2019 21:00:00 6,9 1,7 6 3 13 7 SSW 1024,6 0 0,0
16.02.2019 20:00:00 7,5 1,7 9 5 14 8 S 1024,7 0 0,0
16.02.2019 19:00:00 8,5 1,7 7 4 9 5 SSE 1024,9 0 0,0
16.02.2019 18:00:00 12,1 1,4 7 4 15 8 SSW 1024,5 21 0,0
16.02.2019 17:00:00 14,1 1,8 9 5 21 11 S 1024,8 60 0,0
16.02.2019 16:00:00 15,0 1,9 8 4 25 14 SW 1025,1 60 0,0
16.02.2019 15:00:00 14,6 1,2 14 8 25 14 SW 1025,3 60 0,0
16.02.2019 14:00:00 13,6 2,4 13 7 27 15 SW 1025,8 60 0,0
16.02.2019 13:00:00 13,1 3,6 11 6 24 13 SW 1026,0 60 0,0
16.02.2019 12:00:00 11,5 2,4 13 7 22 12 SW 1026,5 60 0,0
16.02.2019 11:00:00 11,1 2,3 13 7 23 12 SW 1026,1 60 0,0
16.02.2019 10:00:00 8,9 1,7 10 5 22 12 SSW 1026,2 60 0,0
16.02.2019 09:00:00 6,1 0,9 12 6 20 11 S 1026,0 38 0,0
16.02.2019 08:00:00 4,8 0,0 11 6 20 11 SSW 1025,8 0 0,0
16.02.2019 07:00:00 5,9 0,5 11 6 22 12 S 1025,3 0 0,0
16.02.2019 06:00:00 5,4 0,5 11 6 18 10 S 1025,4 0 0,0
16.02.2019 05:00:00 6,3 0,6 13 7 22 12 S 1025,4 0 0,0
16.02.2019 04:00:00 5,5 0,4 13 7 19 10 S 1025,5 0 0,0
16.02.2019 03:00:00 6,8 0,5 11 6 22 12 SSW 1025,9 0 0,0
16.02.2019 02:00:00 6,0 -0,1 9 5 16 9 S 1026,2 0 0,0
16.02.2019 01:00:00 7,2 0,0 11 6 20 11 S 1026,3 0 0,0
16.02.2019 00:00:00 8,2 -0,1 11 6 24 13 S 1026,2 0 0,0
15.02.2019 23:00:00 9,6 -0,3 17 9 29 16 S 1026,3 0 0,0
15.02.2019 22:00:00 10,1 -0,7 16 8 23 13 S 1026,4 0 0,0
15.02.2019 21:00:00 10,9 -0,1 16 9 22 12 S 1026,6 0 0,0
15.02.2019 20:00:00 8,4 1,3 14 7 18 10 S 1027,1 0 0,0
15.02.2019 19:00:00 10,0 1,6 11 6 12 6 SSE 1027,1 0 0,0
15.02.2019 18:00:00 13,1 0,8 8 4 14 8 S 1027,1 50 0,0
15.02.2019 17:00:00 16,5 0,3 9 5 20 11 S 1027,2 60 0,0
15.02.2019 16:00:00 17,9 0,3 10 6 21 11 SE 1027,6 60 0,0
15.02.2019 15:00:00 17,8 0,2 15 8 23 12 SSE 1028,2 60 0,0
15.02.2019 14:00:00 16,7 0,1 14 8 22 12 S 1029,2 60 0,0
15.02.2019 13:00:00 15,7 0,1 14 8 24 13 S 1029,8 60 0,0
15.02.2019 12:00:00 13,8 -0,6 11 6 26 14 S 1030,4 60 0,0
15.02.2019 11:00:00 12,1 -1,4 13 7 25 13 SSE 1030,6 60 0,0
15.02.2019 10:00:00 10,1 -1,7 14 8 28 15 SSE 1030,8 60 0,0
15.02.2019 09:00:00 7,1 -2,0 14 8 24 13 SSE 1031,2 37 0,0
15.02.2019 08:00:00 6,2 -1,7 13 7 22 12 SE 1030,9 0 0,0
15.02.2019 07:00:00 5,7 -2,1 11 6 23 12 SE 1031,0 0 0,0
15.02.2019 06:00:00 6,5 -2,1 14 8 24 13 SE 1031,0 0 0,0
15.02.2019 05:00:00 4,9 -1,8 11 6 18 10 SE 1031,1 0 0,0
15.02.2019 04:00:00 3,3 -2,3 10 6 16 9 ESE 1031,5 0 0,0
15.02.2019 03:00:00 3,4 -2,3 8 4 15 8 SE 1031,9 0 0,0
15.02.2019 02:00:00 3,8 -2,7 11 6 17 9 SE 1032,4 0 0,0
15.02.2019 01:00:00 6,3 -2,6 11 6 23 13 SSE 1032,4 0 0,0
15.02.2019 00:00:00 6,1 -0,5 16 8 20 11 SE 1032,3 0 0,0
14.02.2019 23:00:00 5,4 -0,5 11 6 18 10 SE 1032,6 0 0,0
14.02.2019 22:00:00 5,3 0,1 12 6 16 9 SE 1032,4 0 0,0
14.02.2019 21:00:00 6,3 0,4 10 5 16 8 ESE 1032,5 0 0,0
14.02.2019 20:00:00 6,6 -0,4 10 5 14 8 E 1032,7 0 0,0
14.02.2019 19:00:00 7,6 -0,6 7 4 10 5 E 1032,6 0 0,0
14.02.2019 18:00:00 10,5 -1,2 5 3 13 7 E 1032,5 49 0,0
14.02.2019 17:00:00 13,7 -3,1 9 5 17 9 SE 1032,8 60 0,0
14.02.2019 16:00:00 15,2 -2,1 8 4 16 9 ESE 1033,2 60 0,0
14.02.2019 15:00:00 15,5 -2,8 6 3 16 9 ESE 1033,6 60 0,0
14.02.2019 14:00:00 14,7 -4,5 9 5 19 11 ESE 1033,9 60 0,0
14.02.2019 13:00:00 13,7 -1,4 7 4 17 9 ESE 1034,7 60 0,0
14.02.2019 12:00:00 11,6 -0,3 5 3 11 6 ESE 1035,3 60 0,0
14.02.2019 11:00:00 9,5 -0,5 5 3 14 8 ESE 1035,1 60 0,0
14.02.2019 10:00:00 6,6 1,4 9 5 12 6 SSE 1035,4 60 0,0
14.02.2019 09:00:00 1,2 -1,3 7 4 12 7 SE 1035,6 35 0,0
14.02.2019 08:00:00 1,1 -1,3 9 5 13 7 SSW 1035,3 0 0,0
14.02.2019 07:00:00 1,3 -1,1 11 6 13 7 SSE 1034,7 0 0,0
14.02.2019 06:00:00 1,9 -0,8 8 5 12 6 SSE 1034,6 0 0,0
14.02.2019 05:00:00 1,2 -1,8 8 5 17 9 SSW 1034,5 0 0,0
14.02.2019 04:00:00 1,6 -1,5 8 4 12 7 SSE 1034,6 0 0,0
14.02.2019 03:00:00 1,0 -2,6 7 4 13 7 S 1034,8 0 0,0
14.02.2019 02:00:00 1,7 -1,6 8 5 16 8 S 1034,7 0 0,0
14.02.2019 01:00:00 2,5 -0,7 11 6 16 9 S 1034,8 0 0,0
14.02.2019 00:00:00 2,9 0,0 9 5 20 11 S 1035,0 0 0,0
13.02.2019 23:00:00 2,8 1,2 10 6 15 8 S 1035,1 0 0,0
13.02.2019 22:00:00 2,5 1,1 7 4 13 7 S 1035,3 0 0,0
13.02.2019 21:00:00 2,3 0,7 8 5 10 5 S 1035,5 0 0,0
13.02.2019 20:00:00 2,9 0,4 7 4 11 6 S 1035,7 0 0,0
13.02.2019 19:00:00 4,5 0,6 7 4 13 7 S 1035,6 0 0,0
13.02.2019 18:00:00 5,9 0,8 8 5 14 7 S 1035,3 26 0,0
13.02.2019 17:00:00 6,7 1,0 9 5 22 12 S 1035,4 56 0,0
13.02.2019 16:00:00 7,5 1,1 12 7 24 13 S 1035,4 60 0,0
13.02.2019 15:00:00 8,0 1,3 9 5 18 10 SSW 1035,2 60 0,0
13.02.2019 14:00:00 7,7 1,0 10 5 18 10 SSW 1035,9 60 0,0
13.02.2019 13:00:00 6,8 1,3 10 5 21 11 SSW 1036,5 59 0,0
13.02.2019 12:00:00 5,8 0,8 11 6 22 12 SSW 1036,7 53 0,0
13.02.2019 11:00:00 5,4 1,0 10 6 16 9 SSW 1036,7 60 0,0
13.02.2019 10:00:00 3,4 1,2 8 5 14 8 S 1036,6 60 0,0
13.02.2019 09:00:00 1,0 0,0 7 4 12 7 S 1036,7 32 0,0
13.02.2019 08:00:00 0,3 -0,6 9 5 15 8 S 1036,3 0 0,0
13.02.2019 07:00:00 0,6 -0,3 11 6 21 12 S 1036,0 0 0,0
13.02.2019 06:00:00 0,6 -0,4 10 5 14 8 S 1036,2 0 0,0
13.02.2019 05:00:00 0,9 -0,2 10 5 16 9 S 1036,2 0 0,0
13.02.2019 04:00:00 1,4 0,0 9 5 15 8 S 1036,2 0 0,0
13.02.2019 03:00:00 1,8 0,3 10 6 19 11 S 1036,6 0 0,0
13.02.2019 02:00:00 1,9 0,5 8 4 18 10 SW 1036,7 0 0,0
13.02.2019 01:00:00 2,3 0,9 7 4 18 10 SW 1036,4 0 0,0
13.02.2019 00:00:00 2,9 1,5 9 5 27 14 SSW 1036,3 0 0,0
12.02.2019 23:00:00 3,4 1,7 12 6 20 11 SSW 1035,7 0 0,0
12.02.2019 22:00:00 3,9 2,2 11 6 24 13 SSW 1035,8 0 0,0
12.02.2019 21:00:00 4,4 2,5 11 6 25 14 SSW 1035,8 0 0,0
12.02.2019 20:00:00 5,0 2,6 13 7 26 14 SSW 1035,4 0 0,0
12.02.2019 19:00:00 5,3 2,4 11 6 19 10 SSW 1035,2 0 0,0
12.02.2019 18:00:00 6,2 2,6 10 6 20 11 SSW 1034,9 0 0,0

tt = Température de l'air
td = dewpoint
ff = Vitesse du vent
fx = gusts
dd = Direction du vent
ppp = reduced air pressure
sd = Ensoleillement
rr = Quantités de précipitations

stations d'obs. à proximité